Time;durP1;ratioP1;P1;durP2;ratioP2;P2;SDS_P1;SDS_P2;PMS_P1;PMS_P2;Temp;Humidity;BMP_temperature;BMP_pressure;BME280_temperature;BME280_humidity;BME280_pressure;Samples;Min_cycle;Max_cycle;Signal;HPM_P1;HPM_P2
2023/04/09 00:00:16;;;;;;;10.35;4.95;;;15.60;1.00;;;;;;5054441;28;20400;-34
2023/04/09 00:02:43;;;;;;;9.95;4.65;;;15.50;1.00;;;;;;5053252;28;20045;-34
2023/04/09 00:05:10;;;;;;;6.75;4.57;;;15.50;1.00;;;;;;5053960;28;20090;-34
2023/04/09 00:07:37;;;;;;;7.15;4.88;;;15.50;1.00;;;;;;5053814;28;20038;-34
2023/04/09 00:10:05;;;;;;;9.07;5.13;;;15.50;1.00;;;;;;5053847;28;20098;-34
2023/04/09 00:12:32;;;;;;;8.20;5.40;;;15.60;1.00;;;;;;5053354;28;20053;-34
2023/04/09 00:14:59;;;;;;;8.20;5.00;;;15.60;1.00;;;;;;5053406;28;20049;-34
2023/04/09 00:17:25;;;;;;;7.80;4.93;;;15.50;1.00;;;;;;5053908;28;20049;-34
2023/04/09 00:19:52;;;;;;;8.73;6.20;;;15.50;1.00;;;;;;5053701;28;20044;-34
2023/04/09 00:22:19;;;;;;;8.13;5.18;;;15.50;1.00;;;;;;5053039;28;20045;-34
2023/04/09 00:24:46;;;;;;;7.65;5.28;;;15.50;1.00;;;;;;5053216;28;20045;-34
2023/04/09 00:27:13;;;;;;;7.32;5.22;;;15.50;1.00;;;;;;5053625;28;20037;-34
2023/04/09 00:29:39;;;;;;;8.82;5.32;;;15.50;1.00;;;;;;5052173;28;20091;-34
2023/04/09 00:32:06;;;;;;;9.70;5.80;;;15.50;1.00;;;;;;5052079;28;20481;-34
2023/04/09 00:34:33;;;;;;;10.55;5.55;;;15.50;1.00;;;;;;5051691;28;20045;-34
2023/04/09 00:37:00;;;;;;;10.23;6.22;;;15.50;1.00;;;;;;5053240;28;20056;-34
2023/04/09 00:39:27;;;;;;;10.75;5.30;;;15.50;1.00;;;;;;5052061;28;20056;-34
2023/04/09 00:41:58;;;;;;;8.52;5.28;;;15.50;1.00;;;;;;5052109;28;20083;-34
2023/04/09 00:44:25;;;;;;;10.48;5.88;;;15.50;1.00;;;;;;5051192;28;20041;-34
2023/04/09 00:46:53;;;;;;;9.52;5.75;;;15.50;1.00;;;;;;5051884;28;20072;-34
2023/04/09 00:49:20;;;;;;;10.13;6.28;;;15.50;1.00;;;;;;5053056;28;20056;-34
2023/04/09 00:51:47;;;;;;;9.68;7.05;;;15.50;1.00;;;;;;5051766;28;20068;-34
2023/04/09 00:54:15;;;;;;;11.30;6.38;;;15.50;1.00;;;;;;5051022;28;20056;-34
2023/04/09 00:56:42;;;;;;;11.10;6.70;;;15.40;1.00;;;;;;5051700;28;20052;-34
2023/04/09 00:59:09;;;;;;;10.55;6.50;;;15.50;1.00;;;;;;5051667;28;20046;-34
2023/04/09 01:01:36;;;;;;;9.45;6.57;;;15.50;1.00;;;;;;5052524;28;20049;-34
2023/04/09 01:04:03;;;;;;;11.45;5.97;;;15.50;1.00;;;;;;5050673;28;20103;-34
2023/04/09 01:06:53;;;;;;;12.18;6.68;;;15.40;1.00;;;;;;5051380;28;20041;-34
2023/04/09 01:09:29;;;;;;;11.77;6.72;;;15.50;1.00;;;;;;5052537;28;20503;-34
2023/04/09 01:12:22;;;;;;;11.45;6.95;;;15.40;1.00;;;;;;5052580;28;20041;-34
2023/04/09 01:15:06;;;;;;;11.30;7.22;;;15.50;1.00;;;;;;5051103;28;20045;-34
2023/04/09 01:17:51;;;;;;;11.30;7.25;;;15.40;1.00;;;;;;5051427;28;20099;-34
2023/04/09 01:20:54;;;;;;;10.85;7.18;;;15.40;1.00;;;;;;5051296;28;20049;-34
2023/04/09 01:23:29;;;;;;;11.98;7.57;;;15.40;1.00;;;;;;5046256;28;20467;-34
2023/04/09 01:26:21;;;;;;;13.77;8.20;;;15.40;1.00;;;;;;5052441;28;20041;-34
2023/04/09 01:28:54;;;;;;;14.68;8.48;;;15.40;1.00;;;;;;5051013;28;20040;-35
2023/04/09 01:31:27;;;;;;;17.02;8.35;;;15.40;1.00;;;;;;5052221;28;20068;-34
2023/04/09 01:33:55;;;;;;;16.90;9.30;;;15.40;1.00;;;;;;5051692;28;20041;-34
2023/04/09 01:36:25;;;;;;;14.45;9.30;;;15.40;1.00;;;;;;5052335;28;20500;-34
2023/04/09 01:38:54;;;;;;;14.88;8.43;;;15.40;1.00;;;;;;5052272;28;20048;-34
2023/04/09 01:41:23;;;;;;;16.50;9.95;;;15.40;1.00;;;;;;5052109;28;20115;-34
2023/04/09 01:43:50;;;;;;;14.77;9.55;;;15.40;1.00;;;;;;5050119;28;20041;-34
2023/04/09 01:46:19;;;;;;;17.15;9.90;;;15.40;1.00;;;;;;5052352;28;20518;-34
2023/04/09 01:48:47;;;;;;;15.98;9.70;;;15.40;1.00;;;;;;5050851;28;20072;-34
2023/04/09 01:51:15;;;;;;;20.50;10.00;;;15.40;1.00;;;;;;5052131;28;20389;-35
2023/04/09 01:53:42;;;;;;;15.60;9.55;;;15.40;1.00;;;;;;5051378;28;20037;-34
2023/04/09 01:56:09;;;;;;;16.20;9.20;;;15.40;1.00;;;;;;5050619;28;20052;-34
2023/04/09 01:58:36;;;;;;;24.60;10.82;;;15.40;1.00;;;;;;5050697;28;20065;-35
2023/04/09 02:01:10;;;;;;;16.33;9.82;;;15.40;1.00;;;;;;5050607;28;20110;-35
2023/04/09 02:03:55;;;;;;;15.60;9.05;;;15.40;1.00;;;;;;5051202;28;20065;-34
2023/04/09 02:06:44;;;;;;;14.10;9.38;;;15.40;1.00;;;;;;5050414;28;20415;-34
2023/04/09 02:09:12;;;;;;;15.90;9.30;;;15.40;1.00;;;;;;5050608;28;20045;-34
2023/04/09 02:11:44;;;;;;;15.30;9.65;;;15.40;1.00;;;;;;5050303;28;20083;-34
2023/04/09 02:14:12;;;;;;;18.15;10.48;;;15.40;1.00;;;;;;5049943;28;20045;-34
2023/04/09 02:16:40;;;;;;;15.90;9.55;;;15.40;1.00;;;;;;5050385;28;20475;-34
2023/04/09 02:19:07;;;;;;;15.23;9.63;;;15.40;1.00;;;;;;5051722;28;20566;-34
2023/04/09 02:21:34;;;;;;;19.70;10.63;;;15.40;1.00;;;;;;5055407;28;20099;-34
2023/04/09 02:24:00;;;;;;;18.90;10.52;;;15.40;1.00;;;;;;5053874;28;20131;-34
2023/04/09 02:26:27;;;;;;;17.77;10.40;;;15.40;1.00;;;;;;5055738;28;20087;-35
2023/04/09 02:28:54;;;;;;;17.38;9.93;;;15.40;1.00;;;;;;5054464;28;20053;-34
2023/04/09 02:31:20;;;;;;;17.02;9.82;;;15.40;1.00;;;;;;5054294;28;20385;-34
2023/04/09 02:33:47;;;;;;;19.52;10.98;;;15.30;1.00;;;;;;5054965;28;20040;-34
2023/04/09 02:36:14;;;;;;;16.15;9.98;;;15.40;1.00;;;;;;5054394;28;20040;-34
2023/04/09 02:38:41;;;;;;;20.58;10.52;;;15.40;1.00;;;;;;5055704;28;20045;-34
2023/04/09 02:41:08;;;;;;;21.08;11.65;;;15.30;1.00;;;;;;5054263;28;20152;-34
2023/04/09 02:43:35;;;;;;;18.50;9.73;;;15.40;1.00;;;;;;5054764;28;20052;-34
2023/04/09 02:46:02;;;;;;;17.27;10.40;;;15.30;1.00;;;;;;5055355;28;20041;-35
2023/04/09 02:48:30;;;;;;;17.52;11.50;;;15.30;1.00;;;;;;5054154;28;20076;-34
2023/04/09 02:50:57;;;;;;;16.45;10.52;;;15.40;1.00;;;;;;5053935;28;20056;-35
2023/04/09 02:53:24;;;;;;;16.58;10.38;;;15.30;1.00;;;;;;5053297;28;20044;-34
2023/04/09 02:55:51;;;;;;;18.00;10.82;;;15.30;1.00;;;;;;5055402;28;20478;-34
2023/04/09 02:58:18;;;;;;;15.02;9.63;;;15.30;1.00;;;;;;5054095;28;20049;-34
2023/04/09 03:00:44;;;;;;;15.98;10.05;;;15.30;1.00;;;;;;5055133;28;20049;-34
2023/04/09 03:03:11;;;;;;;17.88;10.32;;;15.30;1.00;;;;;;5053110;28;20055;-34
2023/04/09 03:05:38;;;;;;;18.17;9.75;;;15.30;1.00;;;;;;5055091;28;20523;-35
2023/04/09 03:08:05;;;;;;;14.38;9.65;;;15.30;1.00;;;;;;5053753;28;20056;-35
2023/04/09 03:10:32;;;;;;;18.52;11.02;;;15.30;1.00;;;;;;5055124;28;20047;-34
2023/04/09 03:12:59;;;;;;;16.60;9.27;;;15.30;1.00;;;;;;5052699;28;20059;-35
2023/04/09 03:15:25;;;;;;;18.70;10.60;;;15.30;1.00;;;;;;5053673;28;20193;-34
2023/04/09 03:17:52;;;;;;;20.50;10.32;;;15.30;1.00;;;;;;5054911;28;20049;-34
2023/04/09 03:20:19;;;;;;;15.13;9.63;;;15.30;1.00;;;;;;5054867;28;20037;-34
2023/04/09 03:22:46;;;;;;;16.58;10.23;;;15.30;1.00;;;;;;5052715;28;20049;-34
2023/04/09 03:25:36;;;;;;;15.15;10.52;;;15.30;1.00;;;;;;5054443;28;20555;-34
2023/04/09 03:28:10;;;;;;;19.95;9.88;;;15.30;1.00;;;;;;5053459;28;20061;-35
2023/04/09 03:30:44;;;;;;;15.43;9.43;;;15.30;1.00;;;;;;5053233;28;20416;-35
2023/04/09 03:33:12;;;;;;;17.90;10.45;;;15.30;1.00;;;;;;5052461;28;20052;-34
2023/04/09 03:35:50;;;;;;;14.93;8.80;;;15.30;1.00;;;;;;5053196;28;20052;-34
2023/04/09 03:38:23;;;;;;;15.48;8.57;;;15.30;1.00;;;;;;5054896;28;20049;-34
2023/04/09 03:40:50;;;;;;;13.77;8.68;;;15.30;1.00;;;;;;5053144;28;20136;-35
2023/04/09 03:43:17;;;;;;;16.85;9.90;;;15.30;1.00;;;;;;5053624;28;20496;-35
2023/04/09 03:45:49;;;;;;;13.90;9.25;;;15.30;1.00;;;;;;5053070;28;20129;-35
2023/04/09 03:48:21;;;;;;;16.08;9.52;;;15.30;1.00;;;;;;5053009;28;20044;-34
2023/04/09 03:50:49;;;;;;;13.05;8.82;;;15.30;1.00;;;;;;5052987;28;20208;-35
2023/04/09 03:53:23;;;;;;;12.35;7.85;;;15.30;1.00;;;;;;5052359;28;20527;-34
2023/04/09 03:55:52;;;;;;;14.48;8.50;;;15.30;1.00;;;;;;5052905;28;20108;-34
2023/04/09 03:58:25;;;;;;;14.73;8.13;;;15.30;1.00;;;;;;5052966;28;20044;-34
2023/04/09 04:00:53;;;;;;;14.05;8.55;;;15.30;1.00;;;;;;5052639;28;20484;-35
2023/04/09 04:03:31;;;;;;;14.40;9.70;;;15.30;1.00;;;;;;5053271;28;20453;-34
2023/04/09 04:06:16;;;;;;;13.15;8.13;;;15.30;1.00;;;;;;5054123;28;20447;-34
2023/04/09 04:09:01;;;;;;;13.23;8.68;;;15.30;1.00;;;;;;5052733;28;20132;-34
2023/04/09 04:11:39;;;;;;;16.65;9.38;;;15.30;1.00;;;;;;5060340;22;21751;-31
2023/04/09 04:14:06;;;;;;;11.40;7.53;;;15.30;1.00;;;;;;5044769;28;20082;-39
2023/04/09 04:16:33;;;;;;;14.75;8.63;;;15.20;1.00;;;;;;5052530;28;20157;-37
2023/04/09 04:19:02;;;;;;;12.93;8.38;;;15.20;1.00;;;;;;5052444;28;20045;-37
2023/04/09 04:21:31;;;;;;;13.27;8.05;;;15.20;1.00;;;;;;5052386;28;20457;-34
2023/04/09 04:24:00;;;;;;;15.77;9.55;;;15.20;1.00;;;;;;5051612;28;20060;-34
2023/04/09 04:26:28;;;;;;;14.60;9.30;;;15.20;1.00;;;;;;5052311;28;20041;-36
2023/04/09 04:28:55;;;;;;;13.48;7.97;;;15.20;1.00;;;;;;5052302;28;20075;-33
2023/04/09 04:31:43;;;;;;;13.20;8.55;;;15.20;1.00;;;;;;5052136;28;20761;-34
2023/04/09 04:34:12;;;;;;;15.13;9.02;;;15.20;1.00;;;;;;5051348;28;20045;-32
2023/04/09 04:36:41;;;;;;;11.63;7.18;;;15.20;1.00;;;;;;5052086;28;20045;-36
2023/04/09 04:39:07;;;;;;;14.55;7.72;;;15.20;1.00;;;;;;5052142;28;20131;-32
2023/04/09 04:41:49;;;;;;;13.65;8.68;;;15.20;1.00;;;;;;5052032;28;20050;-37
2023/04/09 04:44:22;;;;;;;13.10;8.10;;;15.20;1.00;;;;;;5050764;28;20080;-37
2023/04/09 04:46:55;;;;;;;13.07;8.13;;;15.20;1.00;;;;;;5051793;28;20122;-34
2023/04/09 04:49:22;;;;;;;11.65;7.10;;;15.20;1.00;;;;;;5051940;28;20072;-32
2023/04/09 04:51:50;;;;;;;14.68;9.07;;;15.20;1.00;;;;;;5051798;28;20505;-32
2023/04/09 04:54:17;;;;;;;13.40;8.18;;;15.20;1.00;;;;;;5051088;28;20049;-38
2023/04/09 04:56:50;;;;;;;;;;;15.20;1.00;;;;;;5052195;28;20075;-31
2023/04/09 04:59:29;;;;;;;13.77;7.50;;;15.20;1.00;;;;;;5051793;28;19950;-34
2023/04/09 05:02:01;;;;;;;10.45;7.38;;;15.20;1.00;;;;;;5035683;28;20041;-32
2023/04/09 05:04:31;;;;;;;12.20;7.68;;;15.20;1.00;;;;;;5050920;28;20141;-32
2023/04/09 05:06:59;;;;;;;14.05;7.55;;;15.20;1.00;;;;;;5051481;28;20037;-31
2023/04/09 05:09:26;;;;;;;11.43;7.05;;;15.20;1.00;;;;;;5052869;28;20033;-34
2023/04/09 05:12:03;;;;;;;13.68;8.40;;;15.20;1.00;;;;;;5051336;28;20045;-33
2023/04/09 05:14:30;;;;;;;12.23;8.18;;;15.20;1.00;;;;;;5050664;28;20045;-31
2023/04/09 05:16:57;;;;;;;12.07;8.13;;;15.10;1.00;;;;;;5052635;28;20455;-37
2023/04/09 05:19:28;;;;;;;11.80;7.72;;;15.20;1.00;;;;;;5051345;28;20043;-33
2023/04/09 05:21:59;;;;;;;16.83;8.18;;;15.20;1.00;;;;;;5051011;28;20049;-31
2023/04/09 05:24:26;;;;;;;15.57;8.52;;;15.20;1.00;;;;;;5050407;28;20516;-38
2023/04/09 05:26:53;;;;;;;12.43;8.48;;;15.10;1.00;;;;;;5052523;28;20068;-36
2023/04/09 05:29:20;;;;;;;13.18;8.65;;;15.20;1.00;;;;;;5052482;28;20365;-35
2023/04/09 05:31:47;;;;;;;12.98;7.65;;;15.20;1.00;;;;;;5050907;28;20071;-36
2023/04/09 05:34:24;;;;;;;11.52;7.57;;;15.20;1.00;;;;;;5050327;28;20500;-37
2023/04/09 05:36:53;;;;;;;14.38;8.35;;;15.20;1.00;;;;;;5050866;28;20053;-31
2023/04/09 05:39:22;;;;;;;16.00;8.70;;;15.20;1.00;;;;;;5050307;28;20040;-36
2023/04/09 05:41:51;;;;;;;13.88;7.93;;;15.20;1.00;;;;;;5039845;28;20453;-33
2023/04/09 05:44:24;;;;;;;13.07;7.25;;;15.20;1.00;;;;;;5034738;28;20115;-38
2023/04/09 05:46:57;;;;;;;11.43;7.75;;;15.20;1.00;;;;;;5033873;28;20907;-35
2023/04/09 05:49:30;;;;;;;15.38;8.55;;;15.20;1.00;;;;;;5031635;28;20047;-33
2023/04/09 05:51:58;;;;;;;13.63;8.30;;;15.20;1.00;;;;;;5030186;28;20037;-34
2023/04/09 05:54:30;;;;;;;11.68;7.50;;;15.20;1.00;;;;;;5032056;28;20057;-36
2023/04/09 05:56:57;;;;;;;13.23;7.93;;;15.20;1.00;;;;;;5031087;28;20075;-35
2023/04/09 05:59:25;;;;;;;15.20;8.15;;;15.20;1.00;;;;;;5038395;28;20099;-34
2023/04/09 06:01:52;;;;;;;11.32;8.00;;;15.20;1.00;;;;;;5050036;28;20084;-32
2023/04/09 06:04:19;;;;;;;11.27;7.30;;;15.10;1.00;;;;;;5049744;28;20053;-33
2023/04/09 06:06:46;;;;;;;13.68;7.63;;;15.10;1.00;;;;;;5051715;28;20037;-34
2023/04/09 06:09:13;;;;;;;10.68;7.47;;;15.10;1.00;;;;;;5051865;28;20090;-34
2023/04/09 06:11:40;;;;;;;13.57;8.68;;;15.10;1.00;;;;;;5050366;28;20095;-31
2023/04/09 06:14:07;;;;;;;12.90;7.93;;;15.10;1.00;;;;;;5049524;28;20447;-31
2023/04/09 06:16:34;;;;;;;14.65;8.10;;;15.10;1.00;;;;;;5050512;28;20053;-36
2023/04/09 06:19:01;;;;;;;10.73;7.10;;;15.10;1.00;;;;;;5051699;28;20555;-34
2023/04/09 06:21:28;;;;;;;12.93;7.43;;;15.10;1.00;;;;;;5051641;28;20495;-36
2023/04/09 06:23:54;;;;;;;12.50;8.10;;;15.10;1.00;;;;;;5050951;28;20053;-31
2023/04/09 06:26:21;;;;;;;13.00;7.65;;;15.10;1.00;;;;;;5051676;28;20159;-34
2023/04/09 06:28:48;;;;;;;13.95;8.45;;;15.10;1.00;;;;;;5051433;28;20037;-34
2023/04/09 06:31:15;;;;;;;14.88;8.40;;;15.10;1.00;;;;;;5051549;28;20040;-32
2023/04/09 06:33:41;;;;;;;12.82;7.93;;;15.10;1.00;;;;;;5050888;28;20126;-32
2023/04/09 06:36:09;;;;;;;12.27;8.05;;;15.10;1.00;;;;;;5051663;28;20067;-33
2023/04/09 06:38:35;;;;;;;11.98;7.95;;;15.10;1.00;;;;;;5051543;28;20075;-34
2023/04/09 06:41:05;;;;;;;13.32;6.70;;;15.10;1.00;;;;;;5051679;28;20123;-36
2023/04/09 06:43:32;;;;;;;12.18;7.28;;;15.10;1.00;;;;;;5050670;28;20049;-32
2023/04/09 06:45:59;;;;;;;14.07;8.18;;;15.10;1.00;;;;;;5051477;28;20045;-33
2023/04/09 06:48:25;;;;;;;11.35;7.43;;;15.10;1.00;;;;;;5051581;28;20051;-32
2023/04/09 06:50:52;;;;;;;11.90;7.47;;;15.10;1.00;;;;;;5051436;28;20136;-32
2023/04/09 06:53:19;;;;;;;10.50;7.97;;;15.10;1.00;;;;;;5050710;28;20455;-36
2023/04/09 06:55:46;;;;;;;13.15;7.47;;;15.10;1.00;;;;;;5051281;28;20116;-35
2023/04/09 06:58:12;;;;;;;12.93;7.43;;;15.10;1.00;;;;;;5051298;28;20045;-34
2023/04/09 07:00:39;;;;;;;17.25;7.45;;;15.10;1.00;;;;;;5051330;28;20509;-36
2023/04/09 07:03:07;;;;;;;14.00;8.43;;;15.10;1.00;;;;;;5050603;28;20060;-35
2023/04/09 07:05:35;;;;;;;13.30;7.85;;;15.10;1.00;;;;;;5051373;28;20045;-33
2023/04/09 07:08:03;;;;;;;12.65;7.97;;;15.10;1.00;;;;;;5055128;28;20048;-36
2023/04/09 07:10:29;;;;;;;15.73;8.43;;;15.10;1.00;;;;;;5055440;28;20091;-32
2023/04/09 07:12:56;;;;;;;12.48;7.88;;;15.10;1.00;;;;;;5054122;28;20071;-32
2023/04/09 07:15:23;;;;;;;16.42;7.78;;;15.10;1.00;;;;;;5054883;28;20064;-35
2023/04/09 07:17:50;;;;;;;13.07;7.88;;;15.10;1.00;;;;;;5054999;28;20127;-33
2023/04/09 07:20:17;;;;;;;12.07;7.90;;;15.10;1.00;;;;;;5054806;28;20493;-34
2023/04/09 07:22:44;;;;;;;15.82;8.10;;;15.10;1.00;;;;;;5054040;28;20111;-33
2023/04/09 07:25:10;;;;;;;12.05;8.23;;;15.10;1.00;;;;;;5054698;28;20404;-35
2023/04/09 07:27:37;;;;;;;13.50;8.13;;;15.10;1.00;;;;;;5054726;28;20059;-36
2023/04/09 07:30:05;;;;;;;14.43;9.18;;;15.10;1.00;;;;;;5054759;28;20069;-33
2023/04/09 07:32:32;;;;;;;14.60;9.32;;;15.10;1.00;;;;;;5054223;28;20037;-37
2023/04/09 07:34:59;;;;;;;11.70;7.95;;;15.10;1.00;;;;;;5054151;28;20041;-37
2023/04/09 07:37:26;;;;;;;15.52;8.48;;;15.10;1.00;;;;;;5054557;28;20049;-36
2023/04/09 07:39:52;;;;;;;16.02;8.55;;;15.10;1.00;;;;;;5054374;28;20052;-35
2023/04/09 07:42:19;;;;;;;14.70;8.13;;;15.10;1.00;;;;;;5054264;28;20045;-35
2023/04/09 07:44:46;;;;;;;13.77;7.85;;;15.10;1.00;;;;;;5054147;28;20124;-34
2023/04/09 07:47:13;;;;;;;12.98;7.57;;;15.10;1.00;;;;;;5054391;28;20037;-34
2023/04/09 07:49:40;;;;;;;13.32;8.18;;;15.10;1.00;;;;;;5054188;28;20056;-35
2023/04/09 07:52:07;;;;;;;13.43;7.85;;;15.10;1.00;;;;;;5054142;28;20049;-37
2023/04/09 07:54:34;;;;;;;14.60;8.02;;;15.10;1.00;;;;;;5053533;28;20405;-34
2023/04/09 07:57:01;;;;;;;14.02;9.18;;;15.00;1.00;;;;;;5054175;28;20074;-34
2023/04/09 07:59:29;;;;;;;16.67;8.82;;;15.10;1.00;;;;;;5054040;28;20083;-35
2023/04/09 08:01:56;;;;;;;16.73;9.63;;;15.00;1.00;;;;;;5054002;28;20077;-32
2023/04/09 08:04:23;;;;;;;14.68;8.20;;;15.10;1.00;;;;;;5053309;28;20049;-34
2023/04/09 08:06:50;;;;;;;12.00;7.55;;;15.10;1.00;;;;;;5053865;28;20098;-33
2023/04/09 08:09:20;;;;;;;12.35;8.15;;;15.10;1.00;;;;;;5054020;28;20447;-37
2023/04/09 08:12:12;;;;;;;15.80;9.00;;;15.00;1.00;;;;;;5053562;28;20400;-37
2023/04/09 08:14:40;;;;;;;;;;;15.00;1.00;;;;;;5053685;28;20041;-33
2023/04/09 08:17:13;;;;;;;14.13;6.97;;;15.00;1.00;;;;;;5053049;28;19927;-38
2023/04/09 08:19:48;;;;;;;14.20;8.77;;;15.00;1.00;;;;;;5053466;28;20448;-37
2023/04/09 08:22:27;;;;;;;19.48;10.07;;;15.00;1.00;;;;;;5053270;28;20059;-37
2023/04/09 08:25:01;;;;;;;17.33;9.50;;;15.00;1.00;;;;;;5053137;28;20041;-37
2023/04/09 08:27:33;;;;;;;14.43;8.93;;;15.00;1.00;;;;;;5053889;28;20045;-35
2023/04/09 08:30:07;;;;;;;13.80;7.85;;;15.00;1.00;;;;;;5053434;28;20033;-33
2023/04/09 08:32:34;;;;;;;14.23;8.60;;;15.00;1.00;;;;;;5053313;28;20447;-34
2023/04/09 08:35:01;;;;;;;15.93;9.00;;;15.00;1.00;;;;;;5053083;28;20116;-35
2023/04/09 08:37:28;;;;;;;14.27;8.93;;;15.00;1.00;;;;;;5053451;28;20048;-34
2023/04/09 08:39:55;;;;;;;14.73;8.65;;;15.00;1.00;;;;;;5053214;28;20425;-33
2023/04/09 08:42:23;;;;;;;13.90;8.07;;;15.00;1.00;;;;;;5052751;28;20053;-35
2023/04/09 08:44:50;;;;;;;13.52;7.60;;;15.00;1.00;;;;;;5052874;28;20497;-34
2023/04/09 08:47:19;;;;;;;18.90;9.38;;;15.00;1.00;;;;;;5053208;28;20041;-34
2023/04/09 08:49:47;;;;;;;16.98;9.25;;;15.00;1.00;;;;;;5053102;28;20047;-36
2023/04/09 08:52:16;;;;;;;15.13;8.48;;;15.00;1.00;;;;;;5052757;28;20041;-36
2023/04/09 08:54:43;;;;;;;13.95;8.13;;;15.00;1.00;;;;;;5052473;28;20115;-34
2023/04/09 08:57:10;;;;;;;16.65;9.88;;;15.00;1.00;;;;;;5053015;28;20079;-35
2023/04/09 08:59:36;;;;;;;17.00;9.50;;;15.00;1.00;;;;;;5052890;28;20044;-37
2023/04/09 09:02:10;;;;;;;15.75;8.63;;;15.00;1.00;;;;;;5052918;28;20500;-34
2023/04/09 09:04:48;;;;;;;16.48;9.15;;;15.00;1.00;;;;;;5052322;28;20041;-36
2023/04/09 09:07:16;;;;;;;15.05;8.38;;;15.00;1.00;;;;;;5052733;28;20562;-36
2023/04/09 09:09:51;;;;;;;15.52;8.63;;;15.00;1.00;;;;;;5052751;28;20051;-35
2023/04/09 09:12:33;;;;;;;14.23;8.77;;;15.00;1.00;;;;;;5052375;28;20098;-33
2023/04/09 09:15:00;;;;;;;18.00;9.13;;;15.00;1.00;;;;;;5052228;28;20083;-34
2023/04/09 09:17:27;;;;;;;18.60;9.60;;;15.00;1.00;;;;;;5052641;28;20055;-38
2023/04/09 09:19:54;;;;;;;17.00;9.63;;;15.00;1.00;;;;;;5052521;28;20508;-33
2023/04/09 09:22:21;;;;;;;15.85;8.90;;;15.00;1.00;;;;;;5052504;28;20052;-35
2023/04/09 09:24:49;;;;;;;15.55;8.13;;;15.00;1.00;;;;;;5051935;28;20045;-34
2023/04/09 09:27:35;;;;;;;18.42;9.27;;;15.00;1.00;;;;;;5052510;28;20076;-35
2023/04/09 09:30:04;;;;;;;14.02;8.15;;;15.00;1.00;;;;;;5052037;28;20068;-36
2023/04/09 09:32:33;;;;;;;17.65;9.50;;;15.00;1.00;;;;;;5051975;28;20048;-36
2023/04/09 09:35:03;;;;;;;14.82;8.73;;;15.00;1.00;;;;;;5051905;28;20041;-39
2023/04/09 09:37:31;;;;;;;14.60;8.68;;;15.00;1.00;;;;;;5052389;28;20079;-36
2023/04/09 09:39:59;;;;;;;16.20;8.93;;;15.00;1.00;;;;;;5050879;28;20447;-38
2023/04/09 09:42:26;;;;;;;14.57;9.50;;;15.00;1.00;;;;;;5051768;28;20087;-38
2023/04/09 09:44:54;;;;;;;15.35;8.48;;;15.00;1.00;;;;;;5051783;28;20048;-35
2023/04/09 09:47:22;;;;;;;15.45;8.80;;;15.00;1.00;;;;;;5052196;28;20041;-36
2023/04/09 09:49:50;;;;;;;16.73;9.02;;;15.00;1.00;;;;;;5052078;28;20099;-34
2023/04/09 09:52:23;;;;;;;13.50;8.75;;;15.00;1.00;;;;;;5051663;28;20045;-36
2023/04/09 09:54:55;;;;;;;16.42;7.70;;;15.00;1.00;;;;;;5051695;28;20299;-38
2023/04/09 09:57:25;;;;;;;15.07;9.02;;;15.00;1.00;;;;;;5052152;28;20048;-37
2023/04/09 10:00:08;;;;;;;19.42;8.82;;;15.00;1.00;;;;;;5051896;28;20065;-35
2023/04/09 10:02:43;;;;;;;13.88;8.00;;;15.00;1.00;;;;;;5051680;28;20049;-33
2023/04/09 10:05:10;;;;;;;13.38;8.35;;;15.00;1.00;;;;;;5051909;28;20435;-34
2023/04/09 10:07:37;;;;;;;15.23;9.13;;;15.00;1.00;;;;;;5051750;28;20072;-35
2023/04/09 10:10:08;;;;;;;15.65;8.68;;;15.00;1.00;;;;;;5051738;28;20061;-34
2023/04/09 10:12:35;;;;;;;13.98;7.95;;;15.00;1.00;;;;;;5051390;28;20355;-34
2023/04/09 10:15:06;;;;;;;14.80;8.15;;;15.00;1.00;;;;;;5051473;28;20040;-40
2023/04/09 10:17:33;;;;;;;16.95;8.90;;;15.00;1.00;;;;;;5051882;28;20099;-38
2023/04/09 10:20:35;;;;;;;14.90;8.00;;;15.00;1.00;;;;;;5051544;28;20073;-33
2023/04/09 10:23:08;;;;;;;12.45;7.43;;;15.00;1.00;;;;;;5050920;28;20408;-31
2023/04/09 10:25:35;;;;;;;13.50;7.57;;;15.00;1.00;;;;;;5051671;28;20049;-36
2023/04/09 10:28:13;;;;;;;16.48;8.45;;;15.00;1.00;;;;;;5050587;28;20049;-33
2023/04/09 10:30:40;;;;;;;13.20;7.78;;;15.00;1.00;;;;;;5051689;28;20442;-35
2023/04/09 10:33:09;;;;;;;16.67;8.52;;;14.90;1.00;;;;;;5051012;28;20068;-34
2023/04/09 10:35:36;;;;;;;12.13;7.25;;;15.00;1.00;;;;;;5051554;28;20049;-33
2023/04/09 10:38:05;;;;;;;12.27;7.63;;;15.00;1.00;;;;;;5051639;28;20568;-33
2023/04/09 10:40:41;;;;;;;13.95;8.05;;;15.00;1.00;;;;;;5051842;28;20131;-37
2023/04/09 10:43:09;;;;;;;15.50;8.95;;;15.00;1.00;;;;;;5054707;28;20114;-34
2023/04/09 10:45:41;;;;;;;13.05;8.02;;;15.00;1.00;;;;;;5055446;28;20057;-31
2023/04/09 10:48:12;;;;;;;14.38;8.70;;;15.00;1.00;;;;;;5055532;28;20473;-31
2023/04/09 10:50:43;;;;;;;12.20;8.63;;;15.00;1.00;;;;;;5055347;28;20481;-36
2023/04/09 10:53:23;;;;;;;13.48;8.13;;;15.00;1.00;;;;;;5054536;28;20535;-37
2023/04/09 10:55:52;;;;;;;12.80;7.18;;;15.00;1.00;;;;;;5055282;28;20426;-33
2023/04/09 10:58:20;;;;;;;15.00;8.48;;;15.00;1.00;;;;;;5055388;28;20129;-33
2023/04/09 11:00:48;;;;;;;12.63;7.40;;;15.00;1.00;;;;;;5054816;28;20049;-33
2023/04/09 11:03:19;;;;;;;11.02;6.55;;;15.00;1.00;;;;;;5054354;28;20488;-33
2023/04/09 11:05:52;;;;;;;11.95;7.30;;;15.00;1.00;;;;;;5055034;28;20051;-33
2023/04/09 11:08:20;;;;;;;12.25;7.03;;;15.00;1.00;;;;;;5055122;28;20045;-36
2023/04/09 11:10:47;;;;;;;13.05;7.57;;;15.00;1.00;;;;;;5054955;28;20557;-36
2023/04/09 11:13:20;;;;;;;12.27;7.53;;;15.00;1.00;;;;;;5054146;28;20037;-33
2023/04/09 11:15:46;;;;;;;12.95;7.55;;;15.00;1.00;;;;;;5054965;28;20067;-34
2023/04/09 11:18:21;;;;;;;12.10;8.43;;;15.00;1.00;;;;;;5054906;28;20488;-34
2023/04/09 11:20:48;;;;;;;10.85;6.47;;;15.00;1.00;;;;;;5054774;28;20425;-31
2023/04/09 11:23:16;;;;;;;13.80;8.25;;;15.00;1.00;;;;;;5054037;28;20053;-38
2023/04/09 11:25:48;;;;;;;13.63;7.65;;;15.00;1.00;;;;;;5054838;28;20319;-31
2023/04/09 11:28:15;;;;;;;11.88;7.25;;;15.00;1.00;;;;;;5054798;28;20041;-33
2023/04/09 11:30:42;;;;;;;13.32;7.97;;;15.00;1.00;;;;;;5054535;28;20037;-33
2023/04/09 11:33:13;;;;;;;14.00;7.28;;;15.00;1.00;;;;;;5053867;28;20048;-37
2023/04/09 11:36:03;;;;;;;15.15;6.38;;;15.00;1.00;;;;;;5054502;28;20045;-35
2023/04/09 11:39:06;;;;;;;10.57;6.78;;;15.00;1.00;;;;;;5054517;28;20136;-33
2023/04/09 11:41:34;;;;;;;11.68;6.43;;;15.00;1.00;;;;;;5053605;28;20144;-32
2023/04/09 11:44:07;;;;;;;11.27;7.55;;;15.00;1.00;;;;;;5053649;28;20497;-32
2023/04/09 11:46:38;;;;;;;12.93;8.13;;;15.00;1.00;;;;;;5053018;28;20079;-34
2023/04/09 11:49:05;;;;;;;11.48;6.68;;;15.00;1.00;;;;;;5054300;28;20041;-33
2023/04/09 11:51:34;;;;;;;11.82;7.05;;;15.00;1.00;;;;;;5053989;28;20037;-33
2023/04/09 11:54:04;;;;;;;13.90;8.43;;;15.00;1.00;;;;;;5052218;28;20044;-35
2023/04/09 11:56:32;;;;;;;10.55;7.50;;;15.00;1.00;;;;;;5054258;28;20032;-35
2023/04/09 11:58:59;;;;;;;14.43;7.80;;;15.00;1.00;;;;;;5054150;28;20051;-37
2023/04/09 12:01:32;;;;;;;12.30;7.25;;;15.00;1.00;;;;;;5054117;28;20515;-36
2023/04/09 12:04:00;;;;;;;;;;;15.00;1.00;;;;;;5053757;28;20497;-34
2023/04/09 12:06:27;;;;;;;13.27;7.07;;;15.00;1.00;;;;;;5053919;28;20295;-34
2023/04/09 12:08:58;;;;;;;13.55;7.80;;;15.00;1.00;;;;;;5053834;28;20493;-34
2023/04/09 12:11:30;;;;;;;11.88;7.13;;;15.00;1.00;;;;;;5054267;28;20045;-35
2023/04/09 12:14:01;;;;;;;11.88;6.88;;;15.00;1.00;;;;;;5053010;28;20056;-32
2023/04/09 12:16:35;;;;;;;11.40;7.05;;;15.00;1.00;;;;;;5053949;28;20463;-37
2023/04/09 12:19:09;;;;;;;13.90;6.85;;;15.00;1.00;;;;;;5053816;28;20053;-34
2023/04/09 12:21:49;;;;;;;9.55;6.38;;;15.00;1.00;;;;;;5053574;28;20041;-33
2023/04/09 12:24:19;;;;;;;12.57;7.35;;;15.00;1.00;;;;;;5052967;28;20075;-34
2023/04/09 12:26:46;;;;;;;12.32;7.65;;;15.00;1.00;;;;;;5053675;28;20063;-33
2023/04/09 12:29:14;;;;;;;10.30;6.68;;;15.00;1.00;;;;;;5053335;28;20037;-37
2023/04/09 12:31:42;;;;;;;12.27;7.28;;;15.00;1.00;;;;;;5053507;28;20115;-35
2023/04/09 12:34:08;;;;;;;10.65;6.88;;;15.00;1.00;;;;;;5052776;28;20048;-33
2023/04/09 12:36:38;;;;;;;11.40;7.15;;;15.00;1.00;;;;;;5052202;28;20055;-35
2023/04/09 12:39:05;;;;;;;10.32;6.30;;;15.00;1.00;;;;;;5053342;28;20127;-35
2023/04/09 12:41:32;;;;;;;10.52;6.70;;;15.00;1.00;;;;;;5053266;28;20106;-32
2023/04/09 12:43:58;;;;;;;12.85;7.90;;;15.00;1.00;;;;;;5052648;28;20400;-35
2023/04/09 12:46:27;;;;;;;12.07;7.50;;;15.00;1.00;;;;;;5053339;28;20045;-33
2023/04/09 12:48:53;;;;;;;13.93;7.50;;;15.10;1.00;;;;;;5053071;28;20094;-36
2023/04/09 12:51:20;;;;;;;11.68;6.95;;;15.10;1.00;;;;;;5051715;28;20436;-36
2023/04/09 12:53:47;;;;;;;9.50;6.47;;;15.10;1.00;;;;;;5052393;28;20072;-37
2023/04/09 12:56:14;;;;;;;10.00;6.85;;;15.10;1.00;;;;;;5052895;28;20049;-38
2023/04/09 12:58:40;;;;;;;12.48;7.28;;;15.10;1.00;;;;;;5053069;28;20056;-35
2023/04/09 13:01:07;;;;;;;11.57;6.57;;;15.10;1.00;;;;;;5052865;28;20049;-32